Time;durP1;ratioP1;P1;durP2;ratioP2;P2;SDS_P1;SDS_P2;PMS_P1;PMS_P2;Temp;Humidity;BMP_temperature;BMP_pressure;BME280_temperature;BME280_humidity;BME280_pressure;Samples;Min_cycle;Max_cycle;Signal;HPM_P1;HPM_P2
2022/03/30 00:00:28;;;;;;;24.23;10.38;;;9.80;39.00;;;;;;5072876;28;20228;-34
2022/03/30 00:02:54;;;;;;;16.60;8.02;;;9.70;39.30;;;;;;5073292;28;20502;-34
2022/03/30 00:05:20;;;;;;;16.80;8.27;;;9.70;39.40;;;;;;5073849;28;20176;-33
2022/03/30 00:07:53;;;;;;;18.17;9.88;;;9.70;39.40;;;;;;5073514;28;20663;-34
2022/03/30 00:10:19;;;;;;;13.68;9.05;;;9.70;39.10;;;;;;5073743;28;20180;-34
2022/03/30 00:12:46;;;;;;;20.58;10.75;;;9.60;39.40;;;;;;5073055;28;20197;-34
2022/03/30 00:15:12;;;;;;;21.80;9.73;;;9.60;39.10;;;;;;5072989;28;20185;-35
2022/03/30 00:17:38;;;;;;;15.68;7.82;;;9.50;39.20;;;;;;5072562;28;20587;-35
2022/03/30 00:20:05;;;;;;;21.63;9.97;;;9.50;39.40;;;;;;5066846;28;20184;-35
2022/03/30 00:22:30;;;;;;;19.67;9.15;;;9.40;39.40;;;;;;5069069;28;20207;-35
2022/03/30 00:24:56;;;;;;;17.97;9.17;;;9.40;39.60;;;;;;5072886;28;20603;-34
2022/03/30 00:27:21;;;;;;;21.13;9.37;;;9.30;39.50;;;;;;5072785;28;20207;-35
2022/03/30 00:29:48;;;;;;;24.67;10.20;;;9.30;39.70;;;;;;5072652;28;20172;-35
2022/03/30 00:32:14;;;;;;;20.50;10.40;;;9.30;39.50;;;;;;5072518;28;20172;-34
2022/03/30 00:34:39;;;;;;;22.83;9.70;;;9.30;39.70;;;;;;5072432;28;20629;-34
2022/03/30 00:37:08;;;;;;;20.30;9.47;;;9.20;39.60;;;;;;5072520;28;20922;-34
2022/03/30 00:39:35;;;;;;;13.23;8.57;;;9.20;39.50;;;;;;5072451;28;20226;-34
2022/03/30 00:42:00;;;;;;;27.13;9.00;;;9.20;39.60;;;;;;5072358;28;20185;-34
2022/03/30 00:44:26;;;;;;;19.17;10.33;;;9.10;39.30;;;;;;5072629;28;20259;-34
2022/03/30 00:46:53;;;;;;;23.00;10.77;;;9.10;39.60;;;;;;5072298;28;20928;-34
2022/03/30 00:49:18;;;;;;;19.90;9.70;;;9.00;39.50;;;;;;5070673;28;20438;-34
2022/03/30 00:51:45;;;;;;;11.63;8.37;;;9.00;39.50;;;;;;5072224;28;20628;-34
2022/03/30 00:54:10;;;;;;;21.08;8.38;;;9.00;39.60;;;;;;5071804;28;20933;-34
2022/03/30 00:56:39;;;;;;;13.90;8.33;;;8.90;39.50;;;;;;5072310;28;20169;-34
2022/03/30 00:59:06;;;;;;;24.65;9.55;;;8.90;39.60;;;;;;5071760;28;20840;-34
2022/03/30 01:01:34;;;;;;;20.70;9.15;;;8.90;39.80;;;;;;5072102;28;20263;-34
2022/03/30 01:04:04;;;;;;;13.73;6.95;;;8.90;39.80;;;;;;5072015;28;20180;-34
2022/03/30 01:06:30;;;;;;;20.98;10.38;;;8.80;39.50;;;;;;5072288;28;20183;-34
2022/03/30 01:08:56;;;;;;;16.30;8.80;;;8.80;39.80;;;;;;5071942;28;20724;-34
2022/03/30 01:11:22;;;;;;;19.75;8.82;;;8.70;40.10;;;;;;5072750;23;20217;-32
2022/03/30 01:13:49;;;;;;;25.27;11.80;;;8.70;40.10;;;;;;5052013;28;20209;-32
2022/03/30 01:16:16;;;;;;;13.23;6.22;;;8.70;40.10;;;;;;5051816;28;20248;-32
2022/03/30 01:18:42;;;;;;;22.52;10.95;;;8.70;40.10;;;;;;5051948;28;20539;-32
2022/03/30 01:21:08;;;;;;;20.65;8.27;;;8.70;40.00;;;;;;5051759;28;20687;-32
2022/03/30 01:23:35;;;;;;;16.80;9.63;;;8.70;40.20;;;;;;5052017;28;20208;-32
2022/03/30 01:26:03;;;;;;;20.98;10.80;;;8.70;40.20;;;;;;5051982;28;20184;-32
2022/03/30 01:28:31;;;;;;;16.05;7.80;;;8.70;40.30;;;;;;5051817;28;20175;-33
2022/03/30 01:33:48;;;;;;;14.73;6.70;;;8.60;41.00;;;;;;5051742;28;20205;-32
2022/03/30 01:36:17;;;;;;;18.77;8.27;;;8.70;40.80;;;;;;5051282;28;20174;-32
2022/03/30 01:38:43;;;;;;;19.55;11.43;;;8.60;41.00;;;;;;5050988;28;20247;-32
2022/03/30 01:41:09;;;;;;;21.92;13.32;;;8.60;40.70;;;;;;5051455;28;20197;-32
2022/03/30 01:43:34;;;;;;;18.95;9.55;;;8.60;40.90;;;;;;5051643;28;20191;-32
2022/03/30 01:46:00;;;;;;;15.40;9.20;;;8.70;40.90;;;;;;5051733;28;20180;-32
2022/03/30 01:48:26;;;;;;;18.63;9.20;;;8.70;40.80;;;;;;5051625;28;20173;-32
2022/03/30 01:50:52;;;;;;;20.40;10.63;;;8.70;40.90;;;;;;5051463;28;20196;-32
2022/03/30 01:53:18;;;;;;;20.48;10.35;;;8.70;40.60;;;;;;5051561;28;20668;-32
2022/03/30 01:55:44;;;;;;;24.53;11.03;;;8.80;40.80;;;;;;5051706;28;20187;-32
2022/03/30 01:58:09;;;;;;;21.20;8.30;;;8.80;40.80;;;;;;5051756;28;20412;-32
2022/03/30 02:00:35;;;;;;;18.17;9.20;;;8.80;40.80;;;;;;5051224;28;20200;-32
2022/03/30 02:03:01;;;;;;;18.57;9.07;;;8.80;40.80;;;;;;5051525;28;20190;-33
2022/03/30 02:05:28;;;;;;;16.63;8.30;;;8.90;40.80;;;;;;5053549;28;20203;-32
2022/03/30 02:07:54;;;;;;;22.20;8.43;;;8.90;40.60;;;;;;5055512;28;20177;-33
2022/03/30 02:10:20;;;;;;;15.40;9.03;;;8.90;40.60;;;;;;5054737;28;20765;-32
2022/03/30 02:12:46;;;;;;;26.93;11.73;;;8.90;40.60;;;;;;5055070;28;20451;-32
2022/03/30 02:15:13;;;;;;;23.70;8.97;;;8.90;40.70;;;;;;5055050;28;20455;-32
2022/03/30 02:17:40;;;;;;;15.60;8.48;;;8.90;40.80;;;;;;5055468;28;20260;-32
2022/03/30 02:20:08;;;;;;;30.80;10.63;;;8.90;41.30;;;;;;5054886;28;20181;-31
2022/03/30 02:22:34;;;;;;;12.90;7.68;;;8.90;41.10;;;;;;5054303;28;20674;-32
2022/03/30 02:25:00;;;;;;;19.92;8.60;;;8.90;41.30;;;;;;5046903;28;20655;-31
2022/03/30 02:27:26;;;;;;;21.02;9.23;;;8.90;41.00;;;;;;5054846;28;20239;-32
2022/03/30 02:29:56;;;;;;;22.90;10.60;;;8.90;41.10;;;;;;5054621;28;20212;-32
2022/03/30 02:32:22;;;;;;;16.38;9.23;;;9.00;40.90;;;;;;5055079;28;20185;-32
2022/03/30 02:34:48;;;;;;;22.27;9.48;;;9.00;41.00;;;;;;5055074;28;20176;-32
2022/03/30 02:37:14;;;;;;;19.70;8.57;;;9.00;40.90;;;;;;5055174;28;20203;-32
2022/03/30 02:39:40;;;;;;;19.10;8.67;;;9.00;40.70;;;;;;5054348;28;20177;-32
2022/03/30 02:42:07;;;;;;;21.23;11.80;;;9.00;40.90;;;;;;5054616;28;20430;-32
2022/03/30 02:44:34;;;;;;;21.35;8.60;;;9.00;40.80;;;;;;5054543;28;20766;-32
2022/03/30 02:47:01;;;;;;;21.58;8.70;;;9.00;40.80;;;;;;5054475;28;20229;-31
2022/03/30 02:49:27;;;;;;;22.00;9.52;;;9.00;41.00;;;;;;5054160;28;20657;-32
2022/03/30 02:51:53;;;;;;;26.40;12.50;;;9.00;41.20;;;;;;5054376;28;20230;-33
2022/03/30 02:54:20;;;;;;;22.23;11.15;;;9.00;41.00;;;;;;5054237;28;20209;-32
2022/03/30 02:56:46;;;;;;;18.08;9.32;;;9.00;41.10;;;;;;5054293;28;20189;-32
2022/03/30 02:59:12;;;;;;;23.87;11.83;;;9.00;41.10;;;;;;5054090;28;20176;-32
2022/03/30 03:01:38;;;;;;;17.70;10.90;;;9.00;41.00;;;;;;5054441;28;20219;-32
2022/03/30 03:04:04;;;;;;;17.25;10.10;;;9.10;41.10;;;;;;5054227;28;20343;-33
2022/03/30 03:06:30;;;;;;;17.20;9.32;;;9.10;41.00;;;;;;5054114;28;20671;-32
2022/03/30 03:08:57;;;;;;;17.48;8.52;;;9.10;41.10;;;;;;5054143;28;20269;-32
2022/03/30 03:11:26;;;;;;;15.63;8.65;;;9.10;41.00;;;;;;5053879;28;20212;-32
2022/03/30 03:13:52;;;;;;;13.20;7.70;;;9.10;41.20;;;;;;5053965;28;20660;-32
2022/03/30 03:16:18;;;;;;;27.58;10.55;;;9.10;41.00;;;;;;5053360;28;20181;-32
2022/03/30 03:18:45;;;;;;;17.57;9.37;;;9.20;41.30;;;;;;5044344;28;20176;-32
2022/03/30 03:21:11;;;;;;;18.98;8.98;;;9.20;41.50;;;;;;5053898;28;20439;-32
2022/03/30 03:23:37;;;;;;;16.90;6.77;;;9.20;41.20;;;;;;5053825;28;20177;-32
2022/03/30 03:26:02;;;;;;;14.83;8.17;;;9.20;41.10;;;;;;5053783;28;20404;-32
2022/03/30 03:28:28;;;;;;;20.10;10.30;;;9.20;41.20;;;;;;5054031;28;20537;-32
2022/03/30 03:30:54;;;;;;;19.70;10.53;;;9.30;41.20;;;;;;5053682;28;20246;-32
2022/03/30 03:33:20;;;;;;;19.92;11.93;;;9.30;41.40;;;;;;5053794;28;20212;-32
2022/03/30 03:35:47;;;;;;;22.93;10.83;;;9.30;41.20;;;;;;5053428;28;20180;-33
2022/03/30 03:38:12;;;;;;;23.55;9.40;;;9.30;41.40;;;;;;5053789;28;20173;-32
2022/03/30 03:40:40;;;;;;;20.03;10.57;;;9.30;41.40;;;;;;5053176;28;20194;-32
2022/03/30 03:43:06;;;;;;;22.08;9.52;;;9.30;41.80;;;;;;5053647;28;20187;-32
2022/03/30 03:45:33;;;;;;;23.10;9.90;;;9.30;41.50;;;;;;5053366;28;20227;-32
2022/03/30 03:47:59;;;;;;;21.23;10.98;;;9.30;41.40;;;;;;5053285;28;20169;-32
2022/03/30 03:50:26;;;;;;;34.28;12.07;;;9.30;41.10;;;;;;5052913;28;20243;-32
2022/03/30 03:52:52;;;;;;;29.35;12.77;;;9.40;42.00;;;;;;5053139;28;20251;-32
2022/03/30 03:55:18;;;;;;;24.48;9.23;;;9.40;41.50;;;;;;5053496;28;20211;-32
2022/03/30 03:57:44;;;;;;;20.63;10.87;;;9.40;41.70;;;;;;5053130;28;20640;-32
2022/03/30 04:00:12;;;;;;;21.83;11.50;;;9.40;41.50;;;;;;5052823;28;20263;-32
2022/03/30 04:02:38;;;;;;;20.58;10.48;;;9.40;41.60;;;;;;5053291;28;20173;-33
2022/03/30 04:05:04;;;;;;;20.60;10.00;;;9.40;41.50;;;;;;5053180;28;20668;-32
2022/03/30 04:07:32;;;;;;;21.83;9.57;;;9.40;41.50;;;;;;5052906;28;20400;-32
2022/03/30 04:09:59;;;;;;;31.58;12.73;;;9.40;41.70;;;;;;5052779;28;20251;-33
2022/03/30 04:12:25;;;;;;;19.90;9.18;;;9.40;41.70;;;;;;5052882;28;20179;-32
2022/03/30 04:14:50;;;;;;;15.30;8.90;;;9.50;41.70;;;;;;5052911;28;20553;-32
2022/03/30 04:17:16;;;;;;;23.07;8.73;;;9.40;41.90;;;;;;5052671;28;20637;-32
2022/03/30 04:19:42;;;;;;;27.60;10.13;;;9.50;41.80;;;;;;5052397;28;20173;-32
2022/03/30 04:22:07;;;;;;;25.50;10.53;;;9.50;41.60;;;;;;5052617;28;20193;-32
2022/03/30 04:24:33;;;;;;;15.30;7.70;;;9.50;41.50;;;;;;5052583;28;20177;-32
2022/03/30 04:26:59;;;;;;;20.70;11.23;;;9.50;41.90;;;;;;5052218;28;20168;-32
2022/03/30 04:29:24;;;;;;;17.67;10.43;;;9.60;41.70;;;;;;5052402;28;20179;-32
2022/03/30 04:31:50;;;;;;;15.40;8.30;;;9.60;41.50;;;;;;5052366;28;20315;-32
2022/03/30 04:34:16;;;;;;;22.83;11.00;;;9.60;41.50;;;;;;5052363;28;20217;-33
2022/03/30 04:36:41;;;;;;;14.67;7.40;;;9.60;41.40;;;;;;5052433;28;20169;-32
2022/03/30 04:39:07;;;;;;;20.20;9.80;;;9.60;41.40;;;;;;5052322;28;20168;-33
2022/03/30 04:41:33;;;;;;;26.00;11.47;;;9.60;41.40;;;;;;5052180;28;20196;-32
2022/03/30 04:43:58;;;;;;;19.27;10.23;;;9.60;41.50;;;;;;5052178;28;20196;-31
2022/03/30 04:46:24;;;;;;;23.33;10.93;;;9.70;42.40;;;;;;5052214;28;20182;-33
2022/03/30 04:48:50;;;;;;;20.90;9.97;;;9.70;41.80;;;;;;5048590;28;20201;-32
2022/03/30 04:51:15;;;;;;;24.77;10.50;;;9.70;42.20;;;;;;5046530;28;20196;-32
2022/03/30 04:53:41;;;;;;;19.03;8.70;;;9.70;41.60;;;;;;5052221;28;20557;-33
2022/03/30 04:56:06;;;;;;;17.70;9.83;;;9.70;41.60;;;;;;5052274;28;20184;-32
2022/03/30 04:58:32;;;;;;;26.77;9.70;;;9.70;42.30;;;;;;5051952;28;20177;-32
2022/03/30 05:00:58;;;;;;;21.63;11.80;;;9.60;41.70;;;;;;5051788;28;20574;-32
2022/03/30 05:03:24;;;;;;;17.73;9.30;;;9.60;41.60;;;;;;5052205;28;20958;-32
2022/03/30 05:05:49;;;;;;;23.70;10.43;;;9.70;41.60;;;;;;5051937;28;20640;-31
2022/03/30 05:08:15;;;;;;;22.27;10.60;;;9.70;41.50;;;;;;5051959;28;20245;-32
2022/03/30 05:10:43;;;;;;;18.67;10.50;;;9.70;41.50;;;;;;5051696;28;20292;-32
2022/03/30 05:13:09;;;;;;;19.75;11.18;;;9.70;41.40;;;;;;5051942;28;20208;-32
2022/03/30 05:15:34;;;;;;;22.93;12.43;;;9.70;41.60;;;;;;5052136;28;20171;-32
2022/03/30 05:18:00;;;;;;;17.07;9.50;;;9.70;41.80;;;;;;5051813;28;20324;-32
2022/03/30 05:20:27;;;;;;;23.02;10.48;;;9.70;41.80;;;;;;5051804;28;20190;-32
2022/03/30 05:22:52;;;;;;;20.65;10.45;;;9.80;41.80;;;;;;5051943;28;20206;-32
2022/03/30 05:25:21;;;;;;;26.23;12.30;;;9.80;42.10;;;;;;5051880;28;20518;-32
2022/03/30 05:27:47;;;;;;;29.50;12.57;;;9.70;42.30;;;;;;5051709;28;20176;-32
2022/03/30 05:30:13;;;;;;;24.00;11.03;;;9.80;41.80;;;;;;5051420;28;20324;-32
2022/03/30 05:32:44;;;;;;;21.52;10.43;;;9.80;41.90;;;;;;5043397;28;20458;-32
2022/03/30 05:35:11;;;;;;;21.08;10.32;;;9.80;41.80;;;;;;5051787;28;20541;-32
2022/03/30 05:37:36;;;;;;;21.15;10.48;;;9.80;41.70;;;;;;5051673;28;20173;-31
2022/03/30 05:40:04;;;;;;;20.90;10.13;;;9.90;41.70;;;;;;5052775;28;20241;-32
2022/03/30 05:42:30;;;;;;;25.02;11.18;;;9.90;41.60;;;;;;5055688;28;20403;-32
2022/03/30 05:44:55;;;;;;;17.67;7.07;;;9.90;41.60;;;;;;5055600;28;20675;-32
2022/03/30 05:47:21;;;;;;;17.20;9.80;;;10.00;41.20;;;;;;5055383;28;20173;-32
2022/03/30 05:49:47;;;;;;;12.20;6.80;;;10.00;41.30;;;;;;5055570;28;20172;-32
2022/03/30 05:52:13;;;;;;;17.73;7.00;;;10.00;41.20;;;;;;5055691;28;20189;-32
2022/03/30 05:54:38;;;;;;;10.50;6.00;;;10.10;40.90;;;;;;5055557;28;20205;-32
2022/03/30 05:57:05;;;;;;;15.70;7.37;;;10.10;40.80;;;;;;5055351;28;20879;-32
2022/03/30 05:59:40;;;;;;;15.23;6.72;;;10.10;40.80;;;;;;5054954;28;20666;-32
2022/03/30 06:02:08;;;;;;;13.77;7.28;;;10.10;40.80;;;;;;5055080;28;20709;-32
2022/03/30 06:04:35;;;;;;;14.55;5.90;;;10.20;40.80;;;;;;5055209;28;20177;-33
2022/03/30 06:07:01;;;;;;;9.20;5.75;;;10.20;40.80;;;;;;5055173;28;20177;-33
2022/03/30 06:09:27;;;;;;;7.82;5.00;;;10.30;40.70;;;;;;5054672;28;20173;-32
2022/03/30 06:11:54;;;;;;;17.48;6.93;;;10.30;40.60;;;;;;5054850;28;20221;-32
2022/03/30 06:14:20;;;;;;;15.68;6.45;;;10.40;40.40;;;;;;5054854;28;20200;-32
2022/03/30 06:16:47;;;;;;;11.93;6.07;;;10.40;40.20;;;;;;5055166;28;20181;-32
2022/03/30 06:19:14;;;;;;;8.98;5.85;;;10.50;40.20;;;;;;5054725;28;20660;-32
2022/03/30 06:21:42;;;;;;;13.02;5.80;;;10.60;39.90;;;;;;5054801;28;20695;-31
2022/03/30 06:24:11;;;;;;;11.25;5.53;;;10.60;39.90;;;;;;5054865;28;20177;-32
2022/03/30 06:26:41;;;;;;;7.90;6.30;;;10.60;39.60;;;;;;5055027;28;20241;-32
2022/03/30 06:29:08;;;;;;;16.17;6.82;;;10.60;39.50;;;;;;5054854;28;20161;-33
2022/03/30 06:31:34;;;;;;;14.15;5.03;;;10.70;39.60;;;;;;5054742;28;20732;-33
2022/03/30 06:34:01;;;;;;;9.20;5.95;;;10.80;39.40;;;;;;5054672;28;20572;-31
2022/03/30 06:36:27;;;;;;;6.35;4.97;;;10.80;39.20;;;;;;5054506;28;20180;-32
2022/03/30 06:38:53;;;;;;;16.97;7.17;;;10.90;39.10;;;;;;5054813;28;20169;-33
2022/03/30 06:41:19;;;;;;;13.57;7.37;;;10.90;39.00;;;;;;5054644;28;21008;-32
2022/03/30 06:43:46;;;;;;;19.87;7.27;;;10.90;38.90;;;;;;5054800;28;20635;-33
2022/03/30 06:46:16;;;;;;;20.08;7.90;;;10.90;38.90;;;;;;5053365;28;20181;-33
2022/03/30 06:48:45;;;;;;;14.45;7.43;;;10.90;38.80;;;;;;5045866;28;20276;-32
2022/03/30 06:51:12;;;;;;;13.07;6.03;;;10.90;38.60;;;;;;5053857;28;20200;-32
2022/03/30 06:53:37;;;;;;;13.45;6.50;;;10.90;38.60;;;;;;5054763;28;20292;-33
2022/03/30 06:56:03;;;;;;;10.00;6.03;;;10.90;38.60;;;;;;5054497;28;20253;-32
2022/03/30 06:58:29;;;;;;;13.10;6.83;;;11.00;38.60;;;;;;5054527;28;20166;-32
2022/03/30 07:00:56;;;;;;;10.90;6.33;;;11.00;38.70;;;;;;5054011;28;21016;-32
2022/03/30 07:03:26;;;;;;;10.35;6.03;;;11.10;38.70;;;;;;5054168;28;20231;-32
2022/03/30 07:05:52;;;;;;;12.07;6.10;;;11.10;38.60;;;;;;5054682;28;20257;-32
2022/03/30 07:11:02;;;;;;;21.10;7.25;;;11.20;38.40;;;;;;5053922;28;20219;-32
2022/03/30 07:13:28;;;;;;;14.33;8.30;;;11.20;38.50;;;;;;5054063;28;20205;-32
2022/03/30 07:15:53;;;;;;;17.43;8.43;;;11.20;39.00;;;;;;5053884;28;20529;-32
2022/03/30 07:18:20;;;;;;;16.53;6.77;;;11.20;38.40;;;;;;5054122;28;20216;-32
2022/03/30 07:20:46;;;;;;;9.77;5.85;;;11.30;38.40;;;;;;5053750;28;20204;-32
2022/03/30 07:23:13;;;;;;;11.73;6.20;;;11.30;38.40;;;;;;5054074;28;20185;-33
2022/03/30 07:25:41;;;;;;;19.13;9.07;;;11.30;38.20;;;;;;5053606;28;20637;-32
2022/03/30 07:28:07;;;;;;;23.75;7.70;;;11.40;38.30;;;;;;5053664;28;20193;-32
2022/03/30 07:30:34;;;;;;;15.98;8.90;;;11.40;38.30;;;;;;5053568;28;20201;-33
2022/03/30 07:33:01;;;;;;;18.45;8.55;;;11.50;38.40;;;;;;5053586;28;20584;-32
2022/03/30 07:35:28;;;;;;;17.85;8.32;;;11.50;38.40;;;;;;5053832;28;20607;-33
2022/03/30 07:37:55;;;;;;;16.75;8.95;;;11.50;38.30;;;;;;5053764;28;20177;-33
2022/03/30 07:40:22;;;;;;;20.48;8.82;;;11.60;38.20;;;;;;5053505;28;20189;-33
2022/03/30 07:42:49;;;;;;;18.30;8.15;;;11.60;38.10;;;;;;5053541;28;20184;-32
2022/03/30 07:45:16;;;;;;;16.30;7.90;;;11.60;37.90;;;;;;5053594;28;20533;-33
2022/03/30 07:47:42;;;;;;;12.20;6.85;;;11.60;37.90;;;;;;5053402;28;20181;-33
2022/03/30 07:50:08;;;;;;;15.03;6.57;;;11.50;37.70;;;;;;5052989;28;20195;-32
2022/03/30 07:52:35;;;;;;;24.75;8.00;;;11.50;37.90;;;;;;5053404;28;20254;-32
2022/03/30 07:55:01;;;;;;;19.48;8.68;;;11.50;38.00;;;;;;5053361;28;20185;-33
2022/03/30 07:57:27;;;;;;;14.93;7.80;;;11.50;37.90;;;;;;5053696;28;20173;-32
2022/03/30 07:59:54;;;;;;;20.02;7.30;;;11.60;37.80;;;;;;5052817;28;20415;-32
2022/03/30 08:02:20;;;;;;;21.15;11.88;;;11.60;37.90;;;;;;5052081;28;20173;-33
2022/03/30 08:04:46;;;;;;;9.37;7.27;;;11.60;37.90;;;;;;5052917;28;20176;-32
2022/03/30 08:07:12;;;;;;;16.50;8.00;;;11.60;37.90;;;;;;5053245;28;20408;-32
2022/03/30 08:09:37;;;;;;;17.80;9.03;;;11.70;38.00;;;;;;5052845;28;20177;-32
2022/03/30 08:12:04;;;;;;;14.23;8.33;;;11.80;38.00;;;;;;5052593;28;20232;-32
2022/03/30 08:14:30;;;;;;;12.73;7.57;;;11.90;37.90;;;;;;5051361;28;20603;-32
2022/03/30 08:16:55;;;;;;;18.53;7.67;;;12.00;37.70;;;;;;5052598;28;20173;-33
2022/03/30 08:19:21;;;;;;;21.57;8.03;;;12.00;38.30;;;;;;5053039;28;20176;-32
2022/03/30 08:24:31;;;;;;;17.75;7.95;;;12.10;37.70;;;;;;5052967;28;20164;-32
2022/03/30 08:26:57;;;;;;;14.73;7.23;;;12.20;37.50;;;;;;5052583;28;20260;-33
2022/03/30 08:29:23;;;;;;;15.82;8.80;;;12.20;37.40;;;;;;5052289;28;20177;-33
2022/03/30 08:31:49;;;;;;;13.57;7.10;;;12.30;37.60;;;;;;5052354;28;20212;-32
2022/03/30 08:34:15;;;;;;;14.50;8.13;;;12.30;37.40;;;;;;5052320;28;20193;-33
2022/03/30 08:36:42;;;;;;;21.15;8.48;;;12.30;37.20;;;;;;5052654;28;20260;-32
2022/03/30 08:39:11;;;;;;;17.60;6.97;;;12.30;36.80;;;;;;5052430;28;20184;-32
2022/03/30 08:41:45;;;;;;;12.15;7.03;;;12.30;36.70;;;;;;5052576;28;20213;-33
2022/03/30 08:44:16;;;;;;;14.45;8.05;;;12.20;36.30;;;;;;5052190;28;20518;-33
2022/03/30 08:46:46;;;;;;;13.30;6.93;;;12.10;36.50;;;;;;5052460;28;20545;-32
2022/03/30 08:49:13;;;;;;;18.85;7.68;;;12.00;36.70;;;;;;5052211;28;20181;-32
2022/03/30 08:51:40;;;;;;;13.35;6.57;;;12.00;36.70;;;;;;5052331;28;20220;-32
2022/03/30 08:54:09;;;;;;;13.13;6.95;;;12.00;36.90;;;;;;5052133;28;20227;-33
2022/03/30 08:56:37;;;;;;;13.07;6.47;;;12.10;37.00;;;;;;5051947;28;20177;-32
2022/03/30 08:59:04;;;;;;;11.43;7.10;;;12.10;36.70;;;;;;5052213;28;20173;-33
2022/03/30 09:01:34;;;;;;;14.98;6.82;;;12.10;37.20;;;;;;5051916;28;20181;-32
2022/03/30 09:04:03;;;;;;;11.68;6.78;;;12.10;36.40;;;;;;5052075;28;20177;-33
2022/03/30 09:06:38;;;;;;;14.27;7.30;;;12.00;36.00;;;;;;5052235;28;20177;-32
2022/03/30 09:09:06;;;;;;;12.80;6.38;;;11.90;36.90;;;;;;5050351;28;20662;-33
2022/03/30 09:11:45;;;;;;;16.50;7.10;;;11.90;36.60;;;;;;5037128;28;20220;-33
2022/03/30 09:14:15;;;;;;;13.30;5.68;;;11.90;36.60;;;;;;5045363;28;20196;-33
2022/03/30 09:16:44;;;;;;;9.82;5.55;;;11.80;36.60;;;;;;5052455;28;20161;-32
2022/03/30 09:19:12;;;;;;;11.55;6.40;;;11.90;36.80;;;;;;5051672;28;20189;-33
2022/03/30 09:21:46;;;;;;;14.23;8.20;;;11.90;37.30;;;;;;5051931;28;20632;-32
2022/03/30 09:24:14;;;;;;;14.07;7.47;;;11.90;37.30;;;;;;5051978;28;20180;-32
2022/03/30 09:26:42;;;;;;;14.05;7.22;;;11.90;36.80;;;;;;5051961;28;20668;-32
2022/03/30 09:29:09;;;;;;;9.23;6.65;;;11.90;37.10;;;;;;5061612;23;20250;-32
2022/03/30 09:31:36;;;;;;;13.15;7.30;;;12.00;37.20;;;;;;5071521;28;20180;-32
2022/03/30 09:34:04;;;;;;;8.95;6.65;;;12.00;37.40;;;;;;5071575;28;20215;-32
2022/03/30 09:36:35;;;;;;;13.27;7.65;;;12.00;37.30;;;;;;5071809;28;20263;-32
2022/03/30 09:39:02;;;;;;;11.57;7.28;;;12.10;37.70;;;;;;5071402;28;20594;-32
2022/03/30 09:41:48;;;;;;;13.52;6.50;;;12.20;37.70;;;;;;5071703;28;20169;-32
2022/03/30 09:44:14;;;;;;;11.77;6.28;;;12.30;37.90;;;;;;5071711;28;20168;-32
2022/03/30 09:47:07;;;;;;;14.85;6.93;;;12.30;37.60;;;;;;5071884;28;20267;-32
2022/03/30 09:49:52;;;;;;;21.20;7.95;;;12.30;37.70;;;;;;5071313;28;20200;-32
2022/03/30 09:52:19;;;;;;;10.73;6.50;;;12.30;37.60;;;;;;5071575;28;20172;-32
2022/03/30 09:54:51;;;;;;;20.02;5.68;;;12.30;37.40;;;;;;5071440;28;20672;-32
2022/03/30 09:57:26;;;;;;;10.23;5.88;;;12.30;37.70;;;;;;5071480;28;20259;-32
2022/03/30 09:59:58;;;;;;;10.25;5.78;;;12.40;37.70;;;;;;5071224;28;20188;-32
2022/03/30 10:02:27;;;;;;;7.85;4.15;;;12.40;38.20;;;;;;5071616;28;20172;-32
2022/03/30 10:04:54;;;;;;;13.32;5.20;;;12.40;37.50;;;;;;5071402;28;20211;-32
2022/03/30 10:07:21;;;;;;;9.57;5.20;;;12.40;37.40;;;;;;5071527;28;20640;-32
2022/03/30 10:09:48;;;;;;;14.30;5.88;;;12.40;37.80;;;;;;5071245;28;20215;-32
2022/03/30 10:12:17;;;;;;;6.80;3.80;;;12.40;37.90;;;;;;5071620;28;20200;-32
2022/03/30 10:14:45;;;;;;;11.80;5.85;;;12.40;38.10;;;;;;5071198;28;20207;-32
2022/03/30 10:17:12;;;;;;;11.90;5.82;;;12.40;37.90;;;;;;5071531;28;20199;-32
2022/03/30 10:19:40;;;;;;;14.63;6.25;;;12.30;37.80;;;;;;5071279;28;20200;-32
2022/03/30 10:22:13;;;;;;;13.57;7.13;;;12.30;38.70;;;;;;5071673;28;20203;-32
2022/03/30 10:24:48;;;;;;;11.77;5.40;;;12.30;38.60;;;;;;5071286;28;20179;-32
2022/03/30 10:27:29;;;;;;;5.65;3.55;;;12.20;38.90;;;;;;5074246;28;20314;-32
2022/03/30 10:30:00;;;;;;;6.25;4.05;;;12.20;39.00;;;;;;5074517;28;20212;-33
2022/03/30 10:32:32;;;;;;;15.27;5.38;;;12.20;39.10;;;;;;5074708;28;20191;-32
2022/03/30 10:35:05;;;;;;;11.07;4.70;;;12.30;39.20;;;;;;5074641;28;20269;-32
2022/03/30 10:37:42;;;;;;;8.02;3.90;;;12.30;39.10;;;;;;5074786;28;20184;-32
2022/03/30 10:40:24;;;;;;;10.73;5.25;;;12.30;39.00;;;;;;5074623;28;20238;-31
2022/03/30 10:42:50;;;;;;;9.07;5.65;;;12.30;39.20;;;;;;5074550;28;20226;-32
2022/03/30 10:45:28;;;;;;;16.73;4.73;;;12.20;39.20;;;;;;5074788;28;20184;-32
2022/03/30 10:48:09;;;;;;;10.38;4.40;;;12.20;39.20;;;;;;5074365;28;20179;-32
2022/03/30 10:50:36;;;;;;;7.20;4.45;;;12.20;39.30;;;;;;5074223;28;20191;-32
2022/03/30 10:53:02;;;;;;;5.32;3.65;;;12.20;39.40;;;;;;5074484;28;20204;-32
2022/03/30 10:55:33;;;;;;;7.97;4.57;;;12.30;39.70;;;;;;5074648;28;20218;-32
2022/03/30 10:58:02;;;;;;;16.45;5.28;;;12.20;39.70;;;;;;5074318;28;20762;-32
2022/03/30 11:00:39;;;;;;;14.18;4.60;;;12.20;39.80;;;;;;5073843;28;20200;-33
2022/03/30 11:03:09;;;;;;;15.90;6.35;;;12.20;40.10;;;;;;5074305;28;20222;-31
2022/03/30 11:05:36;;;;;;;10.75;5.00;;;12.20;40.40;;;;;;5074390;28;20176;-32
2022/03/30 11:08:06;;;;;;;8.75;4.20;;;12.30;40.60;;;;;;5074237;28;20168;-32
2022/03/30 11:10:49;;;;;;;9.07;4.32;;;12.20;40.70;;;;;;5073747;28;20560;-33
2022/03/30 11:13:24;;;;;;;11.52;6.10;;;12.30;40.50;;;;;;5074034;28;20204;-32
2022/03/30 11:15:59;;;;;;;13.75;5.13;;;12.20;40.30;;;;;;5073891;28;20183;-32
2022/03/30 11:18:26;;;;;;;7.95;4.22;;;12.20;40.50;;;;;;5073808;28;20172;-32
2022/03/30 11:21:21;;;;;;;14.55;4.68;;;12.20;40.60;;;;;;5073975;28;20193;-32
2022/03/30 11:24:04;;;;;;;6.47;4.38;;;12.20;40.90;;;;;;5059918;28;20227;-32
2022/03/30 11:26:48;;;;;;;13.35;6.68;;;12.20;40.90;;;;;;5073890;28;20663;-32
2022/03/30 11:29:42;;;;;;;11.60;5.00;;;12.20;41.20;;;;;;5073287;28;20200;-32
2022/03/30 11:32:22;;;;;;;6.30;3.55;;;12.20;41.00;;;;;;5072370;28;20271;-32
2022/03/30 11:35:13;;;;;;;8.07;5.22;;;12.20;41.30;;;;;;5073703;28;20293;-32
2022/03/30 11:37:46;;;;;;;7.00;4.22;;;12.20;41.30;;;;;;5066104;28;20180;-32
2022/03/30 11:40:17;;;;;;;8.63;4.95;;;12.20;41.50;;;;;;5073022;28;20192;-32
2022/03/30 11:42:45;;;;;;;7.63;4.55;;;12.20;41.70;;;;;;5073434;28;20173;-32
2022/03/30 11:45:15;;;;;;;9.13;5.30;;;12.20;41.40;;;;;;5073308;28;20165;-32
2022/03/30 11:47:49;;;;;;;9.38;4.32;;;12.20;41.70;;;;;;5073248;28;20173;-32
2022/03/30 11:50:37;;;;;;;9.98;5.28;;;12.30;41.90;;;;;;5073307;28;20216;-32
2022/03/30 11:53:09;;;;;;;10.20;6.18;;;12.20;42.10;;;;;;5072760;28;20234;-32
2022/03/30 11:55:55;;;;;;;9.95;4.97;;;12.30;42.20;;;;;;5073530;28;20296;-32
2022/03/30 11:58:28;;;;;;;12.60;5.78;;;12.40;42.10;;;;;;5072994;28;20198;-32
2022/03/30 12:00:56;;;;;;;7.40;3.97;;;12.40;42.30;;;;;;5072711;28;20684;-32
2022/03/30 12:03:23;;;;;;;7.22;3.75;;;12.40;42.20;;;;;;5073120;28;20177;-32
2022/03/30 12:05:56;;;;;;;6.80;3.55;;;12.40;42.00;;;;;;5073062;28;20226;-32
2022/03/30 12:08:23;;;;;;;6.72;3.17;;;12.50;42.00;;;;;;5072948;28;20185;-32
2022/03/30 12:10:53;;;;;;;8.40;3.35;;;12.50;42.00;;;;;;5072564;28;20196;-32
2022/03/30 12:13:24;;;;;;;6.55;3.90;;;12.50;41.90;;;;;;5072850;28;20258;-32
2022/03/30 12:16:02;;;;;;;5.40;3.17;;;12.50;41.90;;;;;;5072747;28;20202;-32
2022/03/30 12:18:29;;;;;;;4.78;3.13;;;12.50;41.90;;;;;;5072634;28;20191;-32
2022/03/30 12:21:00;;;;;;;5.30;3.83;;;12.40;41.70;;;;;;5072577;28;20192;-32
2022/03/30 12:23:26;;;;;;;8.73;2.78;;;12.40;41.80;;;;;;5072935;28;20184;-32
2022/03/30 12:25:53;;;;;;;6.85;3.75;;;12.40;42.40;;;;;;5072467;28;20188;-33
2022/03/30 12:28:32;;;;;;;6.72;3.25;;;12.40;41.60;;;;;;5072753;28;20192;-32
2022/03/30 12:30:58;;;;;;;7.15;4.15;;;12.40;42.10;;;;;;5072521;28;20227;-32
2022/03/30 12:33:24;;;;;;;5.95;3.60;;;12.40;42.30;;;;;;5072480;28;20216;-32
2022/03/30 12:35:52;;;;;;;12.63;4.30;;;12.50;42.20;;;;;;5072614;28;20179;-32
2022/03/30 12:38:21;;;;;;;7.75;3.28;;;12.50;42.30;;;;;;5072284;28;20173;-32
2022/03/30 12:40:52;;;;;;;8.40;4.43;;;12.50;42.30;;;;;;5072398;28;20232;-32
2022/03/30 12:43:24;;;;;;;4.75;2.83;;;12.50;42.20;;;;;;5072643;28;20161;-31
2022/03/30 12:45:54;;;;;;;6.47;3.50;;;12.40;42.20;;;;;;5072387;28;20196;-32
2022/03/30 12:48:31;;;;;;;6.50;3.55;;;12.40;42.00;;;;;;5071823;28;20567;-32
2022/03/30 12:50:59;;;;;;;9.45;3.38;;;12.30;42.10;;;;;;5071657;28;20195;-33
2022/03/30 12:53:36;;;;;;;7.53;3.40;;;12.20;41.90;;;;;;5063596;28;20692;-32